KCQX

Details ICAO KCQX
Name Chatham Muni
Region United States
Timezone America/New_York (UTC-5.0)
Plans Departing 0
Arriving 5
Stats Elevation 68 ft / 21 m (AMSL)
Location 41.688400° -69.989522°
Runways 1
Magnetic Variation 14.895° W
Sunrise 2017-12-14 12:00:48 UTC / 2017-12-14 07:00:48 Local
Sunset 2017-12-14 21:11:27 UTC / 2017-12-14 16:11:27 Local
Advertisement - Login to hide

Runways

ID Width Length Bearing (true) Bearing (mag) Surface Threshold Offset Overrun Length
06 100 ft / 30 m 3,000 ft / 915 m 43.80° 58.70° Asphalt 0 ft / 0 m 0 ft / 0 m
24 100 ft / 30 m 3,000 ft / 915 m 223.81° 238.71° Asphalt 0 ft / 0 m 0 ft / 0 m

Map

Weather


0- 5 10 15 20 25 30 35+ Temperature / ° C

Clouds and Precipitation
Forecast for 2017-12-14 06:00 UTC. Updated an hour ago

Ground ~20,000 ft ~40,000 ft Winds

METAR

KCQX 140552Z AUTO 27009KT 10SM BKN110 M04/M13 A2960 RMK AO2 SLP026 T10391133 11033 21044 51016

TAF

Not found

Frequencies

Recorded 135.87 MHz ASOS
Clearance 127.30 MHz CLNC DEL
Unicom 122.80 MHz CTAF/UNICOM
Approach 118.20 MHz CAPE APP/DEP
Warning: Do not use this data for real-world aviation or navigation. No guarantee of current accuracy is given.